sensor_id;sensor_type;location;lat;lon;timestamp;P1;durP1;ratioP1;P2;durP2;ratioP2
23432;SDS011;41331;45.412;10.992;2022-11-02T00:01:48;17.20;;;9.32;;
23432;SDS011;41331;45.412;10.992;2022-11-02T00:04:16;17.08;;;8.88;;
23432;SDS011;41331;45.412;10.992;2022-11-02T00:06:43;15.98;;;8.18;;
23432;SDS011;41331;45.412;10.992;2022-11-02T00:09:10;17.17;;;8.75;;
23432;SDS011;41331;45.412;10.992;2022-11-02T00:11:38;16.38;;;8.32;;
23432;SDS011;41331;45.412;10.992;2022-11-02T00:14:05;22.27;;;8.95;;
23432;SDS011;41331;45.412;10.992;2022-11-02T00:16:33;18.13;;;9.27;;
23432;SDS011;41331;45.412;10.992;2022-11-02T00:19:05;18.63;;;9.55;;
23432;SDS011;41331;45.412;10.992;2022-11-02T00:21:34;17.27;;;9.00;;
23432;SDS011;41331;45.412;10.992;2022-11-02T00:24:02;16.33;;;8.20;;
23432;SDS011;41331;45.412;10.992;2022-11-02T00:26:32;19.10;;;8.98;;
23432;SDS011;41331;45.412;10.992;2022-11-02T00:29:03;18.00;;;9.15;;
23432;SDS011;41331;45.412;10.992;2022-11-02T00:31:31;16.23;;;8.40;;
23432;SDS011;41331;45.412;10.992;2022-11-02T00:34:01;16.40;;;8.07;;
23432;SDS011;41331;45.412;10.992;2022-11-02T00:36:29;15.63;;;8.90;;
23432;SDS011;41331;45.412;10.992;2022-11-02T00:38:57;14.48;;;8.10;;
23432;SDS011;41331;45.412;10.992;2022-11-02T00:41:25;17.95;;;8.48;;
23432;SDS011;41331;45.412;10.992;2022-11-02T00:43:52;15.90;;;8.18;;
23432;SDS011;41331;45.412;10.992;2022-11-02T00:46:19;16.00;;;8.82;;
23432;SDS011;41331;45.412;10.992;2022-11-02T00:48:47;18.35;;;8.98;;
23432;SDS011;41331;45.412;10.992;2022-11-02T00:51:14;17.95;;;10.00;;
23432;SDS011;41331;45.412;10.992;2022-11-02T00:53:42;18.08;;;9.38;;
23432;SDS011;41331;45.412;10.992;2022-11-02T00:56:10;17.55;;;9.45;;
23432;SDS011;41331;45.412;10.992;2022-11-02T00:58:37;14.98;;;9.07;;
23432;SDS011;41331;45.412;10.992;2022-11-02T01:01:05;17.85;;;9.23;;
23432;SDS011;41331;45.412;10.992;2022-11-02T01:03:36;16.45;;;9.05;;
23432;SDS011;41331;45.412;10.992;2022-11-02T01:06:10;18.23;;;9.25;;
23432;SDS011;41331;45.412;10.992;2022-11-02T01:08:40;17.90;;;9.85;;
23432;SDS011;41331;45.412;10.992;2022-11-02T01:11:08;15.20;;;9.60;;
23432;SDS011;41331;45.412;10.992;2022-11-02T01:13:40;20.55;;;10.00;;
23432;SDS011;41331;45.412;10.992;2022-11-02T01:16:08;15.15;;;9.73;;
23432;SDS011;41331;45.412;10.992;2022-11-02T01:18:36;20.13;;;10.02;;
23432;SDS011;41331;45.412;10.992;2022-11-02T01:21:05;15.68;;;8.75;;
23432;SDS011;41331;45.412;10.992;2022-11-02T01:23:34;14.93;;;9.02;;
23432;SDS011;41331;45.412;10.992;2022-11-02T01:26:06;17.42;;;9.55;;
23432;SDS011;41331;45.412;10.992;2022-11-02T01:28:35;16.65;;;9.60;;
23432;SDS011;41331;45.412;10.992;2022-11-02T01:31:02;17.83;;;10.00;;
23432;SDS011;41331;45.412;10.992;2022-11-02T01:33:30;25.98;;;10.27;;
23432;SDS011;41331;45.412;10.992;2022-11-02T01:36:01;20.63;;;9.50;;
23432;SDS011;41331;45.412;10.992;2022-11-02T01:38:30;18.33;;;9.18;;
23432;SDS011;41331;45.412;10.992;2022-11-02T01:40:59;17.08;;;9.23;;
23432;SDS011;41331;45.412;10.992;2022-11-02T01:43:28;18.08;;;9.48;;
23432;SDS011;41331;45.412;10.992;2022-11-02T01:45:58;18.25;;;10.00;;
23432;SDS011;41331;45.412;10.992;2022-11-02T01:51:19;19.25;;;9.02;;
23432;SDS011;41331;45.412;10.992;2022-11-02T01:53:49;14.63;;;9.02;;
23432;SDS011;41331;45.412;10.992;2022-11-02T01:56:19;14.82;;;9.80;;
23432;SDS011;41331;45.412;10.992;2022-11-02T01:58:55;14.80;;;9.95;;
23432;SDS011;41331;45.412;10.992;2022-11-02T02:01:29;18.98;;;9.65;;
23432;SDS011;41331;45.412;10.992;2022-11-02T02:03:58;15.48;;;9.18;;
23432;SDS011;41331;45.412;10.992;2022-11-02T02:06:25;19.20;;;10.73;;
23432;SDS011;41331;45.412;10.992;2022-11-02T02:08:54;14.25;;;9.82;;
23432;SDS011;41331;45.412;10.992;2022-11-02T02:14:02;16.55;;;10.05;;
23432;SDS011;41331;45.412;10.992;2022-11-02T02:27:25;19.20;;;10.73;;
23432;SDS011;41331;45.412;10.992;2022-11-02T02:30:07;17.15;;;9.98;;
23432;SDS011;41331;45.412;10.992;2022-11-02T02:32:51;17.30;;;10.00;;
23432;SDS011;41331;45.412;10.992;2022-11-02T02:38:04;17.58;;;8.88;;
23432;SDS011;41331;45.412;10.992;2022-11-02T02:40:44;15.88;;;9.55;;
23432;SDS011;41331;45.412;10.992;2022-11-02T02:43:51;17.73;;;10.07;;
23432;SDS011;41331;45.412;10.992;2022-11-02T02:46:23;15.43;;;9.65;;
23432;SDS011;41331;45.412;10.992;2022-11-02T02:49:00;18.55;;;9.63;;
23432;SDS011;41331;45.412;10.992;2022-11-02T02:51:32;18.08;;;9.40;;
23432;SDS011;41331;45.412;10.992;2022-11-02T02:54:05;17.13;;;8.50;;
23432;SDS011;41331;45.412;10.992;2022-11-02T02:56:38;16.05;;;8.63;;
23432;SDS011;41331;45.412;10.992;2022-11-02T02:59:15;21.00;;;9.30;;
23432;SDS011;41331;45.412;10.992;2022-11-02T03:01:48;15.95;;;8.90;;
23432;SDS011;41331;45.412;10.992;2022-11-02T03:04:17;20.08;;;9.10;;
23432;SDS011;41331;45.412;10.992;2022-11-02T03:06:47;15.20;;;8.40;;
23432;SDS011;41331;45.412;10.992;2022-11-02T03:09:27;13.98;;;9.00;;
23432;SDS011;41331;45.412;10.992;2022-11-02T03:14:36;16.00;;;8.63;;
23432;SDS011;41331;45.412;10.992;2022-11-02T03:17:24;15.00;;;9.40;;
23432;SDS011;41331;45.412;10.992;2022-11-02T03:25:33;17.02;;;9.63;;
23432;SDS011;41331;45.412;10.992;2022-11-02T03:28:19;13.43;;;8.00;;
23432;SDS011;41331;45.412;10.992;2022-11-02T03:33:48;12.77;;;8.48;;
23432;SDS011;41331;45.412;10.992;2022-11-02T03:36:37;17.40;;;8.43;;
23432;SDS011;41331;45.412;10.992;2022-11-02T03:39:15;14.60;;;8.50;;
23432;SDS011;41331;45.412;10.992;2022-11-02T03:41:48;13.98;;;8.52;;
23432;SDS011;41331;45.412;10.992;2022-11-02T03:44:20;12.63;;;8.70;;
23432;SDS011;41331;45.412;10.992;2022-11-02T03:46:53;13.63;;;8.32;;
23432;SDS011;41331;45.412;10.992;2022-11-02T03:49:27;16.45;;;8.30;;
23432;SDS011;41331;45.412;10.992;2022-11-02T03:51:58;15.07;;;8.43;;
23432;SDS011;41331;45.412;10.992;2022-11-02T03:54:39;12.57;;;8.00;;
23432;SDS011;41331;45.412;10.992;2022-11-02T03:57:55;12.38;;;8.95;;
23432;SDS011;41331;45.412;10.992;2022-11-02T04:00:15;14.90;;;8.67;;
23432;SDS011;41331;45.412;10.992;2022-11-02T04:02:56;13.50;;;8.77;;
23432;SDS011;41331;45.412;10.992;2022-11-02T04:05:29;12.20;;;8.57;;
23432;SDS011;41331;45.412;10.992;2022-11-02T04:08:08;17.42;;;8.25;;
23432;SDS011;41331;45.412;10.992;2022-11-02T04:10:49;12.80;;;7.60;;
23432;SDS011;41331;45.412;10.992;2022-11-02T04:13:39;13.98;;;7.72;;
23432;SDS011;41331;45.412;10.992;2022-11-02T04:16:28;13.20;;;8.07;;
23432;SDS011;41331;45.412;10.992;2022-11-02T04:18:58;15.82;;;8.13;;
23432;SDS011;41331;45.412;10.992;2022-11-02T04:21:44;14.18;;;8.75;;
23432;SDS011;41331;45.412;10.992;2022-11-02T04:24:35;18.35;;;8.80;;
23432;SDS011;41331;45.412;10.992;2022-11-02T04:27:22;15.55;;;8.82;;
23432;SDS011;41331;45.412;10.992;2022-11-02T04:29:51;11.60;;;7.70;;
23432;SDS011;41331;45.412;10.992;2022-11-02T04:32:18;12.98;;;7.78;;
23432;SDS011;41331;45.412;10.992;2022-11-02T04:35:10;15.52;;;8.00;;
23432;SDS011;41331;45.412;10.992;2022-11-02T04:37:39;13.65;;;8.63;;
23432;SDS011;41331;45.412;10.992;2022-11-02T04:40:30;13.43;;;8.55;;
23432;SDS011;41331;45.412;10.992;2022-11-02T04:42:58;14.07;;;9.32;;
23432;SDS011;41331;45.412;10.992;2022-11-02T04:45:27;16.42;;;9.38;;
23432;SDS011;41331;45.412;10.992;2022-11-02T04:47:58;14.70;;;9.18;;
23432;SDS011;41331;45.412;10.992;2022-11-02T04:50:27;14.68;;;9.02;;
23432;SDS011;41331;45.412;10.992;2022-11-02T04:52:56;14.13;;;8.90;;
23432;SDS011;41331;45.412;10.992;2022-11-02T04:55:24;15.30;;;9.10;;
23432;SDS011;41331;45.412;10.992;2022-11-02T04:57:52;17.38;;;9.80;;
23432;SDS011;41331;45.412;10.992;2022-11-02T05:00:22;14.27;;;9.13;;
23432;SDS011;41331;45.412;10.992;2022-11-02T05:02:51;13.48;;;9.35;;
23432;SDS011;41331;45.412;10.992;2022-11-02T05:05:21;15.70;;;9.52;;
23432;SDS011;41331;45.412;10.992;2022-11-02T05:07:50;15.02;;;8.98;;
23432;SDS011;41331;45.412;10.992;2022-11-02T05:10:18;16.85;;;9.18;;
23432;SDS011;41331;45.412;10.992;2022-11-02T05:12:47;12.93;;;9.43;;
23432;SDS011;41331;45.412;10.992;2022-11-02T05:15:14;18.40;;;9.57;;
23432;SDS011;41331;45.412;10.992;2022-11-02T05:17:42;14.88;;;9.40;;
23432;SDS011;41331;45.412;10.992;2022-11-02T05:20:11;22.80;;;9.70;;
23432;SDS011;41331;45.412;10.992;2022-11-02T05:22:42;18.75;;;10.45;;
23432;SDS011;41331;45.412;10.992;2022-11-02T05:25:12;18.40;;;10.43;;
23432;SDS011;41331;45.412;10.992;2022-11-02T05:27:40;21.92;;;12.18;;
23432;SDS011;41331;45.412;10.992;2022-11-02T05:30:08;21.08;;;12.32;;
23432;SDS011;41331;45.412;10.992;2022-11-02T05:32:36;34.13;;;11.38;;
23432;SDS011;41331;45.412;10.992;2022-11-02T05:35:04;26.30;;;13.02;;
23432;SDS011;41331;45.412;10.992;2022-11-02T05:37:32;24.90;;;12.30;;
23432;SDS011;41331;45.412;10.992;2022-11-02T05:40:00;32.45;;;11.80;;
23432;SDS011;41331;45.412;10.992;2022-11-02T05:42:28;27.38;;;11.80;;
23432;SDS011;41331;45.412;10.992;2022-11-02T05:44:56;21.08;;;12.85;;
23432;SDS011;41331;45.412;10.992;2022-11-02T05:47:23;23.52;;;10.75;;
23432;SDS011;41331;45.412;10.992;2022-11-02T05:49:50;21.08;;;11.52;;
23432;SDS011;41331;45.412;10.992;2022-11-02T05:52:18;27.63;;;12.32;;
23432;SDS011;41331;45.412;10.992;2022-11-02T05:54:45;23.85;;;10.88;;
23432;SDS011;41331;45.412;10.992;2022-11-02T05:57:12;23.20;;;10.75;;
23432;SDS011;41331;45.412;10.992;2022-11-02T05:59:40;30.25;;;11.07;;
23432;SDS011;41331;45.412;10.992;2022-11-02T06:02:12;24.48;;;10.73;;
23432;SDS011;41331;45.412;10.992;2022-11-02T06:04:40;19.08;;;10.27;;
23432;SDS011;41331;45.412;10.992;2022-11-02T06:07:07;19.45;;;10.30;;
23432;SDS011;41331;45.412;10.992;2022-11-02T06:09:34;23.63;;;8.73;;
23432;SDS011;41331;45.412;10.992;2022-11-02T06:12:03;17.65;;;8.82;;
23432;SDS011;41331;45.412;10.992;2022-11-02T06:14:31;16.20;;;8.35;;
23432;SDS011;41331;45.412;10.992;2022-11-02T06:16:58;16.33;;;9.18;;
23432;SDS011;41331;45.412;10.992;2022-11-02T06:19:26;23.35;;;9.77;;
23432;SDS011;41331;45.412;10.992;2022-11-02T06:21:53;26.70;;;9.75;;
23432;SDS011;41331;45.412;10.992;2022-11-02T06:24:20;21.55;;;9.68;;
23432;SDS011;41331;45.412;10.992;2022-11-02T06:26:48;20.45;;;9.57;;
23432;SDS011;41331;45.412;10.992;2022-11-02T06:29:16;18.77;;;10.63;;
23432;SDS011;41331;45.412;10.992;2022-11-02T06:31:44;19.35;;;11.60;;
23432;SDS011;41331;45.412;10.992;2022-11-02T06:34:11;17.50;;;11.52;;
23432;SDS011;41331;45.412;10.992;2022-11-02T06:36:38;22.58;;;12.25;;
23432;SDS011;41331;45.412;10.992;2022-11-02T06:39:06;22.90;;;13.02;;
23432;SDS011;41331;45.412;10.992;2022-11-02T06:41:35;23.17;;;12.82;;
23432;SDS011;41331;45.412;10.992;2022-11-02T06:44:02;24.60;;;12.43;;
23432;SDS011;41331;45.412;10.992;2022-11-02T06:46:30;23.10;;;12.73;;
23432;SDS011;41331;45.412;10.992;2022-11-02T06:48:58;20.48;;;12.32;;
23432;SDS011;41331;45.412;10.992;2022-11-02T06:51:28;22.08;;;11.85;;
23432;SDS011;41331;45.412;10.992;2022-11-02T06:53:55;26.67;;;13.13;;
23432;SDS011;41331;45.412;10.992;2022-11-02T06:56:23;19.13;;;11.60;;
23432;SDS011;41331;45.412;10.992;2022-11-02T06:58:50;19.98;;;11.77;;
23432;SDS011;41331;45.412;10.992;2022-11-02T07:01:20;22.60;;;11.98;;
23432;SDS011;41331;45.412;10.992;2022-11-02T07:03:47;19.27;;;12.30;;
23432;SDS011;41331;45.412;10.992;2022-11-02T07:06:15;17.48;;;10.98;;
23432;SDS011;41331;45.412;10.992;2022-11-02T07:08:45;16.40;;;10.85;;
23432;SDS011;41331;45.412;10.992;2022-11-02T07:11:13;14.90;;;10.68;;
23432;SDS011;41331;45.412;10.992;2022-11-02T07:13:42;15.50;;;9.88;;
23432;SDS011;41331;45.412;10.992;2022-11-02T07:16:09;16.20;;;9.63;;
23432;SDS011;41331;45.412;10.992;2022-11-02T07:18:37;14.05;;;9.07;;
23432;SDS011;41331;45.412;10.992;2022-11-02T07:21:04;12.45;;;8.85;;
23432;SDS011;41331;45.412;10.992;2022-11-02T07:23:32;16.30;;;9.38;;
23432;SDS011;41331;45.412;10.992;2022-11-02T07:26:00;14.27;;;9.20;;
23432;SDS011;41331;45.412;10.992;2022-11-02T07:28:28;15.60;;;8.85;;
23432;SDS011;41331;45.412;10.992;2022-11-02T07:30:55;13.05;;;8.38;;
23432;SDS011;41331;45.412;10.992;2022-11-02T07:33:23;12.45;;;7.90;;
23432;SDS011;41331;45.412;10.992;2022-11-02T07:35:50;11.45;;;7.60;;
23432;SDS011;41331;45.412;10.992;2022-11-02T07:38:17;12.93;;;7.10;;
23432;SDS011;41331;45.412;10.992;2022-11-02T07:40:47;10.35;;;7.25;;
23432;SDS011;41331;45.412;10.992;2022-11-02T07:43:16;14.18;;;7.15;;
23432;SDS011;41331;45.412;10.992;2022-11-02T07:45:57;12.47;;;7.10;;
23432;SDS011;41331;45.412;10.992;2022-11-02T07:48:24;13.32;;;7.95;;
23432;SDS011;41331;45.412;10.992;2022-11-02T07:50:52;16.65;;;7.03;;
23432;SDS011;41331;45.412;10.992;2022-11-02T07:53:25;13.40;;;6.82;;
23432;SDS011;41331;45.412;10.992;2022-11-02T07:55:54;10.95;;;6.70;;
23432;SDS011;41331;45.412;10.992;2022-11-02T07:58:21;15.23;;;7.90;;
23432;SDS011;41331;45.412;10.992;2022-11-02T08:00:49;10.13;;;6.75;;
23432;SDS011;41331;45.412;10.992;2022-11-02T08:03:16;8.93;;;6.53;;
23432;SDS011;41331;45.412;10.992;2022-11-02T08:05:44;13.00;;;7.18;;
23432;SDS011;41331;45.412;10.992;2022-11-02T08:08:12;14.15;;;6.97;;
23432;SDS011;41331;45.412;10.992;2022-11-02T08:10:48;18.25;;;8.10;;
23432;SDS011;41331;45.412;10.992;2022-11-02T08:13:21;13.98;;;6.57;;
23432;SDS011;41331;45.412;10.992;2022-11-02T08:15:50;11.23;;;6.75;;
23432;SDS011;41331;45.412;10.992;2022-11-02T08:18:20;10.40;;;6.05;;
23432;SDS011;41331;45.412;10.992;2022-11-02T08:20:49;9.40;;;6.47;;
23432;SDS011;41331;45.412;10.992;2022-11-02T08:23:18;11.55;;;6.70;;
23432;SDS011;41331;45.412;10.992;2022-11-02T08:25:49;13.13;;;6.90;;
23432;SDS011;41331;45.412;10.992;2022-11-02T08:28:22;11.60;;;7.30;;
23432;SDS011;41331;45.412;10.992;2022-11-02T08:30:53;12.10;;;8.02;;
23432;SDS011;41331;45.412;10.992;2022-11-02T08:33:21;10.70;;;7.55;;
23432;SDS011;41331;45.412;10.992;2022-11-02T08:35:48;13.60;;;8.13;;
23432;SDS011;41331;45.412;10.992;2022-11-02T08:38:16;12.38;;;7.97;;
23432;SDS011;41331;45.412;10.992;2022-11-02T08:40:44;10.48;;;7.60;;
23432;SDS011;41331;45.412;10.992;2022-11-02T08:43:13;11.15;;;7.13;;
23432;SDS011;41331;45.412;10.992;2022-11-02T08:45:42;12.05;;;7.65;;
23432;SDS011;41331;45.412;10.992;2022-11-02T08:48:31;11.25;;;7.72;;
23432;SDS011;41331;45.412;10.992;2022-11-02T08:50:59;11.43;;;8.02;;
23432;SDS011;41331;45.412;10.992;2022-11-02T08:53:27;13.43;;;7.72;;
23432;SDS011;41331;45.412;10.992;2022-11-02T08:55:57;10.55;;;7.63;;
23432;SDS011;41331;45.412;10.992;2022-11-02T08:58:25;11.73;;;8.25;;
23432;SDS011;41331;45.412;10.992;2022-11-02T09:00:52;16.00;;;8.02;;
23432;SDS011;41331;45.412;10.992;2022-11-02T09:03:20;14.27;;;8.35;;
23432;SDS011;41331;45.412;10.992;2022-11-02T09:05:57;13.02;;;8.38;;
23432;SDS011;41331;45.412;10.992;2022-11-02T09:08:26;11.25;;;8.23;;
23432;SDS011;41331;45.412;10.992;2022-11-02T09:10:59;14.05;;;8.73;;
23432;SDS011;41331;45.412;10.992;2022-11-02T09:13:27;14.02;;;8.27;;
23432;SDS011;41331;45.412;10.992;2022-11-02T09:15:57;19.10;;;10.38;;
23432;SDS011;41331;45.412;10.992;2022-11-02T09:18:25;16.40;;;9.40;;
23432;SDS011;41331;45.412;10.992;2022-11-02T09:20:53;16.60;;;9.52;;
23432;SDS011;41331;45.412;10.992;2022-11-02T09:23:23;14.43;;;9.55;;
23432;SDS011;41331;45.412;10.992;2022-11-02T09:25:51;13.95;;;9.23;;
23432;SDS011;41331;45.412;10.992;2022-11-02T09:28:18;17.45;;;10.48;;
23432;SDS011;41331;45.412;10.992;2022-11-02T09:30:46;17.15;;;10.02;;
23432;SDS011;41331;45.412;10.992;2022-11-02T09:33:13;20.63;;;10.32;;
23432;SDS011;41331;45.412;10.992;2022-11-02T09:35:42;17.85;;;10.68;;
23432;SDS011;41331;45.412;10.992;2022-11-02T09:38:11;14.68;;;10.27;;
23432;SDS011;41331;45.412;10.992;2022-11-02T09:40:40;18.50;;;11.18;;
23432;SDS011;41331;45.412;10.992;2022-11-02T09:46:30;18.83;;;10.93;;
23432;SDS011;41331;45.412;10.992;2022-11-02T09:49:10;17.23;;;10.93;;
23432;SDS011;41331;45.412;10.992;2022-11-02T09:54:35;19.95;;;11.30;;
23432;SDS011;41331;45.412;10.992;2022-11-02T09:57:16;21.08;;;10.38;;
23432;SDS011;41331;45.412;10.992;2022-11-02T09:59:51;18.60;;;10.98;;
23432;SDS011;41331;45.412;10.992;2022-11-02T10:10:38;21.20;;;12.02;;
23432;SDS011;41331;45.412;10.992;2022-11-02T10:16:08;23.38;;;14.38;;
23432;SDS011;41331;45.412;10.992;2022-11-02T10:18:41;23.40;;;14.77;;
23432;SDS011;41331;45.412;10.992;2022-11-02T10:21:17;24.85;;;14.75;;
23432;SDS011;41331;45.412;10.992;2022-11-02T10:23:49;23.27;;;14.68;;
23432;SDS011;41331;45.412;10.992;2022-11-02T10:26:21;22.85;;;16.13;;
23432;SDS011;41331;45.412;10.992;2022-11-02T10:28:58;25.17;;;15.00;;
23432;SDS011;41331;45.412;10.992;2022-11-02T10:31:31;26.88;;;15.30;;
23432;SDS011;41331;45.412;10.992;2022-11-02T10:36:46;24.67;;;14.98;;
23432;SDS011;41331;45.412;10.992;2022-11-02T10:42:17;25.08;;;14.23;;
23432;SDS011;41331;45.412;10.992;2022-11-02T10:45:11;27.38;;;14.63;;
23432;SDS011;41331;45.412;10.992;2022-11-02T10:51:02;21.40;;;14.52;;
23432;SDS011;41331;45.412;10.992;2022-11-02T10:53:41;28.20;;;14.52;;
23432;SDS011;41331;45.412;10.992;2022-11-02T10:59:13;22.98;;;14.32;;
23432;SDS011;41331;45.412;10.992;2022-11-02T11:04:25;27.17;;;16.05;;
23432;SDS011;41331;45.412;10.992;2022-11-02T11:06:55;26.73;;;16.13;;
23432;SDS011;41331;45.412;10.992;2022-11-02T11:09:37;28.48;;;15.73;;
23432;SDS011;41331;45.412;10.992;2022-11-02T11:12:16;27.73;;;15.55;;
23432;SDS011;41331;45.412;10.992;2022-11-02T11:14:48;31.40;;;16.52;;
23432;SDS011;41331;45.412;10.992;2022-11-02T11:20:33;26.75;;;15.90;;
23432;SDS011;41331;45.412;10.992;2022-11-02T11:23:07;25.48;;;16.20;;
23432;SDS011;41331;45.412;10.992;2022-11-02T11:25:41;30.02;;;18.85;;
23432;SDS011;41331;45.412;10.992;2022-11-02T11:28:24;33.45;;;19.73;;
23432;SDS011;41331;45.412;10.992;2022-11-02T11:31:05;29.23;;;17.27;;
23432;SDS011;41331;45.412;10.992;2022-11-02T11:33:41;29.73;;;17.27;;
23432;SDS011;41331;45.412;10.992;2022-11-02T11:36:29;28.60;;;16.77;;
23432;SDS011;41331;45.412;10.992;2022-11-02T11:39:00;28.60;;;16.98;;
23432;SDS011;41331;45.412;10.992;2022-11-02T11:41:29;28.45;;;16.33;;
23432;SDS011;41331;45.412;10.992;2022-11-02T11:43:59;27.58;;;16.55;;
23432;SDS011;41331;45.412;10.992;2022-11-02T11:49:29;28.30;;;17.45;;
23432;SDS011;41331;45.412;10.992;2022-11-02T11:52:20;31.00;;;17.83;;
23432;SDS011;41331;45.412;10.992;2022-11-02T11:55:00;30.67;;;17.23;;
23432;SDS011;41331;45.412;10.992;2022-11-02T11:57:44;32.22;;;17.52;;
23432;SDS011;41331;45.412;10.992;2022-11-02T12:00:27;28.33;;;16.95;;
23432;SDS011;41331;45.412;10.992;2022-11-02T12:03:02;28.50;;;18.33;;
23432;SDS011;41331;45.412;10.992;2022-11-02T12:05:55;32.70;;;18.88;;
23432;SDS011;41331;45.412;10.992;2022-11-02T12:11:24;30.40;;;17.63;;
23432;SDS011;41331;45.412;10.992;2022-11-02T12:34:04;31.98;;;20.38;;
23432;SDS011;41331;45.412;10.992;2022-11-02T12:42:55;36.33;;;20.07;;
23432;SDS011;41331;45.412;10.992;2022-11-02T12:45:48;34.78;;;19.85;;
23432;SDS011;41331;45.412;10.992;2022-11-02T12:51:14;38.65;;;20.35;;
23432;SDS011;41331;45.412;10.992;2022-11-02T12:53:48;33.92;;;20.30;;
23432;SDS011;41331;45.412;10.992;2022-11-02T12:56:43;30.02;;;19.80;;
23432;SDS011;41331;45.412;10.992;2022-11-02T12:59:16;35.55;;;20.42;;
23432;SDS011;41331;45.412;10.992;2022-11-02T13:01:49;36.65;;;20.25;;
23432;SDS011;41331;45.412;10.992;2022-11-02T13:04:22;32.80;;;20.55;;
23432;SDS011;41331;45.412;10.992;2022-11-02T13:07:00;33.22;;;20.38;;
23432;SDS011;41331;45.412;10.992;2022-11-02T13:09:33;37.42;;;21.42;;
23432;SDS011;41331;45.412;10.992;2022-11-02T13:12:06;36.90;;;22.02;;
23432;SDS011;41331;45.412;10.992;2022-11-02T13:14:54;38.78;;;22.05;;
23432;SDS011;41331;45.412;10.992;2022-11-02T13:23:06;37.38;;;21.85;;
23432;SDS011;41331;45.412;10.992;2022-11-02T13:25:46;43.00;;;22.05;;
23432;SDS011;41331;45.412;10.992;2022-11-02T13:28:23;39.42;;;22.20;;
23432;SDS011;41331;45.412;10.992;2022-11-02T13:30:58;40.47;;;22.70;;
23432;SDS011;41331;45.412;10.992;2022-11-02T13:33:29;37.17;;;21.17;;
23432;SDS011;41331;45.412;10.992;2022-11-02T13:36:09;37.42;;;22.17;;
23432;SDS011;41331;45.412;10.992;2022-11-02T13:49:50;36.35;;;21.98;;
23432;SDS011;41331;45.412;10.992;2022-11-02T13:55:05;41.63;;;22.35;;
23432;SDS011;41331;45.412;10.992;2022-11-02T13:57:38;38.80;;;21.77;;
23432;SDS011;41331;45.412;10.992;2022-11-02T14:02:59;35.88;;;23.10;;
23432;SDS011;41331;45.412;10.992;2022-11-02T14:05:39;36.53;;;20.60;;
23432;SDS011;41331;45.412;10.992;2022-11-02T14:08:10;31.15;;;19.90;;
23432;SDS011;41331;45.412;10.992;2022-11-02T14:11:00;30.25;;;18.52;;
23432;SDS011;41331;45.412;10.992;2022-11-02T14:27:00;27.42;;;16.88;;
23432;SDS011;41331;45.412;10.992;2022-11-02T14:38:29;27.73;;;16.00;;
23432;SDS011;41331;45.412;10.992;2022-11-02T14:40:50;27.63;;;16.15;;
23432;SDS011;41331;45.412;10.992;2022-11-02T14:46:27;25.70;;;17.10;;
23432;SDS011;41331;45.412;10.992;2022-11-02T14:48:58;27.77;;;16.42;;
23432;SDS011;41331;45.412;10.992;2022-11-02T14:51:29;25.38;;;16.27;;
23432;SDS011;41331;45.412;10.992;2022-11-02T14:54:35;25.08;;;15.82;;
23432;SDS011;41331;45.412;10.992;2022-11-02T14:56:55;28.85;;;17.20;;
23432;SDS011;41331;45.412;10.992;2022-11-02T14:59:30;24.92;;;15.63;;
23432;SDS011;41331;45.412;10.992;2022-11-02T15:02:02;26.70;;;16.52;;
23432;SDS011;41331;45.412;10.992;2022-11-02T15:04:35;26.83;;;16.48;;
23432;SDS011;41331;45.412;10.992;2022-11-02T15:07:05;28.10;;;16.65;;
23432;SDS011;41331;45.412;10.992;2022-11-02T15:12:30;24.83;;;15.55;;
23432;SDS011;41331;45.412;10.992;2022-11-02T15:15:04;29.50;;;17.00;;
23432;SDS011;41331;45.412;10.992;2022-11-02T15:17:52;27.98;;;17.30;;
23432;SDS011;41331;45.412;10.992;2022-11-02T15:20:29;30.52;;;17.65;;
23432;SDS011;41331;45.412;10.992;2022-11-02T15:25:29;27.17;;;17.70;;
23432;SDS011;41331;45.412;10.992;2022-11-02T15:28:15;31.00;;;19.77;;
23432;SDS011;41331;45.412;10.992;2022-11-02T15:30:48;31.05;;;19.42;;
23432;SDS011;41331;45.412;10.992;2022-11-02T15:34:02;31.83;;;18.98;;
23432;SDS011;41331;45.412;10.992;2022-11-02T15:36:32;29.73;;;19.48;;
23432;SDS011;41331;45.412;10.992;2022-11-02T15:39:03;35.70;;;20.05;;
23432;SDS011;41331;45.412;10.992;2022-11-02T15:44:09;29.58;;;18.98;;
23432;SDS011;41331;45.412;10.992;2022-11-02T15:49:51;36.55;;;21.25;;
23432;SDS011;41331;45.412;10.992;2022-11-02T16:01:22;34.80;;;21.35;;
23432;SDS011;41331;45.412;10.992;2022-11-02T16:03:56;36.17;;;22.48;;
23432;SDS011;41331;45.412;10.992;2022-11-02T16:06:37;36.42;;;22.20;;
23432;SDS011;41331;45.412;10.992;2022-11-02T16:14:57;39.75;;;23.88;;
23432;SDS011;41331;45.412;10.992;2022-11-02T16:17:51;37.22;;;23.92;;
23432;SDS011;41331;45.412;10.992;2022-11-02T16:20:21;36.88;;;23.77;;
23432;SDS011;41331;45.412;10.992;2022-11-02T16:22:57;43.65;;;25.63;;
23432;SDS011;41331;45.412;10.992;2022-11-02T16:25:34;38.28;;;22.95;;
23432;SDS011;41331;45.412;10.992;2022-11-02T16:33:28;41.03;;;23.73;;
23432;SDS011;41331;45.412;10.992;2022-11-02T16:35:59;35.17;;;22.33;;
23432;SDS011;41331;45.412;10.992;2022-11-02T16:38:27;37.75;;;24.58;;
23432;SDS011;41331;45.412;10.992;2022-11-02T16:40:55;41.75;;;24.52;;
23432;SDS011;41331;45.412;10.992;2022-11-02T16:43:23;38.42;;;24.42;;
23432;SDS011;41331;45.412;10.992;2022-11-02T16:45:57;39.88;;;23.45;;
23432;SDS011;41331;45.412;10.992;2022-11-02T16:48:28;38.83;;;21.77;;
23432;SDS011;41331;45.412;10.992;2022-11-02T16:51:17;29.20;;;20.27;;
23432;SDS011;41331;45.412;10.992;2022-11-02T16:53:45;29.42;;;18.33;;
23432;SDS011;41331;45.412;10.992;2022-11-02T16:56:25;24.50;;;16.08;;
23432;SDS011;41331;45.412;10.992;2022-11-02T16:58:58;25.55;;;15.73;;
23432;SDS011;41331;45.412;10.992;2022-11-02T17:01:29;26.25;;;16.00;;
23432;SDS011;41331;45.412;10.992;2022-11-02T17:04:14;27.38;;;16.08;;
23432;SDS011;41331;45.412;10.992;2022-11-02T17:06:49;29.10;;;16.08;;
23432;SDS011;41331;45.412;10.992;2022-11-02T17:09:24;31.27;;;15.98;;
23432;SDS011;41331;45.412;10.992;2022-11-02T17:11:55;28.38;;;16.80;;
23432;SDS011;41331;45.412;10.992;2022-11-02T17:14:26;30.60;;;16.92;;
23432;SDS011;41331;45.412;10.992;2022-11-02T17:16:56;25.17;;;15.77;;
23432;SDS011;41331;45.412;10.992;2022-11-02T17:22:15;26.98;;;16.45;;
23432;SDS011;41331;45.412;10.992;2022-11-02T17:27:38;26.20;;;15.75;;
23432;SDS011;41331;45.412;10.992;2022-11-02T17:33:07;24.70;;;16.20;;
23432;SDS011;41331;45.412;10.992;2022-11-02T17:35:35;28.35;;;15.55;;
23432;SDS011;41331;45.412;10.992;2022-11-02T17:38:07;28.15;;;15.90;;
23432;SDS011;41331;45.412;10.992;2022-11-02T17:40:36;26.65;;;16.25;;
23432;SDS011;41331;45.412;10.992;2022-11-02T17:43:03;26.88;;;15.98;;
23432;SDS011;41331;45.412;10.992;2022-11-02T17:45:32;24.58;;;16.25;;
23432;SDS011;41331;45.412;10.992;2022-11-02T17:48:05;28.27;;;16.30;;
23432;SDS011;41331;45.412;10.992;2022-11-02T17:50:34;27.15;;;16.60;;
23432;SDS011;41331;45.412;10.992;2022-11-02T17:53:04;25.65;;;16.95;;
23432;SDS011;41331;45.412;10.992;2022-11-02T17:55:33;34.55;;;17.48;;